createdAt,value
2022-11-05T00:01:03.520Z,98233.78
2022-11-05T00:03:23.690Z,98238.72
2022-11-05T00:05:43.961Z,98242.56
2022-11-05T00:08:08.321Z,98237.63
2022-11-05T00:10:22.220Z,98238.16
2022-11-05T00:12:42.115Z,98242.56
2022-11-05T00:15:02.274Z,98240.91
2022-11-05T00:17:03.837Z,98243.09
2022-11-05T00:19:08.891Z,98254.03
2022-11-05T00:21:30.703Z,98254.59
2022-11-05T00:23:50.838Z,98255.94
2022-11-05T00:26:03.957Z,98259.75
2022-11-05T00:28:05.518Z,98263.88
2022-11-05T00:30:07.902Z,98264.16
2022-11-05T00:32:11.217Z,98262.78
2022-11-05T00:34:12.723Z,98258.38
2022-11-05T00:36:14.248Z,98269.34
2022-11-05T00:38:15.838Z,98268.25
2022-11-05T00:40:17.511Z,98267.69
2022-11-05T00:42:37.699Z,98274.25
2022-11-05T00:45:02.530Z,98276.69
2022-11-05T00:47:22.691Z,98283.81
2022-11-05T00:49:30.083Z,98275.88
2022-11-05T00:51:31.747Z,98286.00
2022-11-05T00:53:33.279Z,98289.81
2022-11-05T00:55:42.454Z,98287.38
2022-11-05T00:57:43.994Z,98297.47
2022-11-05T00:59:45.469Z,98286.00
2022-11-05T01:01:47.257Z,98295.56
2022-11-05T01:03:51.655Z,98291.16
2022-11-05T01:05:56.782Z,98299.66
2022-11-05T01:07:58.899Z,98295.25
2022-11-05T01:10:00.316Z,98301.84
2022-11-05T01:12:01.858Z,98308.09
2022-11-05T01:14:09.736Z,98297.72
2022-11-05T01:16:11.281Z,98301.53
2022-11-05T01:18:13.073Z,98293.34
2022-11-05T01:20:14.793Z,98302.63
2022-11-05T01:22:16.353Z,98307.00
2022-11-05T01:24:17.803Z,98310.81
2022-11-05T01:26:19.436Z,98312.47
2022-11-05T01:28:21.087Z,98309.19
2022-11-05T01:30:23.562Z,98308.09
2022-11-05T01:32:25.035Z,98319.28
2022-11-05T01:34:26.625Z,98316.84
2022-11-05T01:36:28.055Z,98322.56
2022-11-05T01:38:29.606Z,98328.03
2022-11-05T01:40:31.127Z,98325.03
2022-11-05T01:42:33.415Z,98329.69
2022-11-05T01:44:53.824Z,98342.81
2022-11-05T01:46:55.401Z,98338.13
2022-11-05T01:49:05.421Z,98335.69
2022-11-05T01:51:09.941Z,98330.50
2022-11-05T01:53:18.644Z,98347.69
2022-11-05T01:55:26.287Z,98339.78
2022-11-05T01:57:29.095Z,98340.84
2022-11-05T01:59:37.819Z,98336.50
2022-11-05T02:01:39.600Z,98335.13
2022-11-05T02:03:42.874Z,98336.19
2022-11-05T02:05:46.394Z,98335.94
2022-11-05T02:07:48.962Z,98339.75
2022-11-05T02:10:02.669Z,98339.19
2022-11-05T02:12:04.473Z,98338.38
2022-11-05T02:14:06.224Z,98338.38
2022-11-05T02:16:19.555Z,98344.13
2022-11-05T02:18:32.860Z,98338.91
2022-11-05T02:20:45.700Z,98345.19
2022-11-05T02:23:09.952Z,98342.16
2022-11-05T02:25:48.896Z,98360.50
2022-11-05T02:28:08.836Z,98356.41
2022-11-05T02:30:26.276Z,98366.75
2022-11-05T02:32:46.362Z,98369.22
2022-11-05T02:35:11.900Z,98368.97
2022-11-05T02:37:25.228Z,98367.56
2022-11-05T02:39:59.438Z,98361.56
2022-11-05T02:42:29.150Z,98364.84
2022-11-05T02:44:55.894Z,98364.28
2022-11-05T02:47:18.270Z,98376.31
2022-11-05T02:49:22.778Z,98376.31
2022-11-05T02:51:33.526Z,98376.88
2022-11-05T02:53:58.327Z,98384.50
2022-11-05T02:56:21.370Z,98377.66
2022-11-05T02:58:22.938Z,98376.59
2022-11-05T03:00:39.782Z,98373.00
2022-11-05T03:02:41.546Z,98379.03
2022-11-05T03:04:43.271Z,98382.59
2022-11-05T03:06:56.127Z,98381.75
2022-11-05T03:09:21.578Z,98393.53
2022-11-05T03:11:26.718Z,98394.34
2022-11-05T03:13:41.984Z,98410.22
2022-11-05T03:16:02.558Z,98405.59
2022-11-05T03:18:14.807Z,98409.94
2022-11-05T03:20:21.632Z,98409.69
2022-11-05T03:22:30.676Z,98408.59
2022-11-05T03:24:35.623Z,98410.25
2022-11-05T03:26:55.446Z,98405.84
2022-11-05T03:29:02.480Z,98405.84
2022-11-05T03:31:06.834Z,98404.78
2022-11-05T03:33:31.421Z,98404.78
2022-11-05T03:35:38.314Z,98406.41
2022-11-05T03:37:43.074Z,98411.34
2022-11-05T03:39:50.843Z,98408.63
2022-11-05T03:41:54.042Z,98407.00
2022-11-05T03:43:59.367Z,98403.44
2022-11-05T03:46:16.025Z,98409.72
2022-11-05T03:48:20.543Z,98417.38
2022-11-05T03:50:40.922Z,98410.28
2022-11-05T03:52:52.467Z,98419.56
2022-11-05T03:54:54.121Z,98416.25
2022-11-05T03:56:58.372Z,98426.69
2022-11-05T03:59:01.919Z,98422.84
2022-11-05T04:01:04.116Z,98431.88
2022-11-05T04:03:05.738Z,98435.44
2022-11-05T04:05:07.445Z,98428.06
2022-11-05T04:07:28.526Z,98433.75
2022-11-05T04:09:48.911Z,98425.84
2022-11-05T04:12:09.181Z,98436.50
2022-11-05T04:14:10.727Z,98415.72
2022-11-05T04:16:30.697Z,98424.75
2022-11-05T04:18:32.161Z,98425.81
2022-11-05T04:20:52.410Z,98425.00
2022-11-05T04:23:20.660Z,98429.06
2022-11-05T04:25:22.687Z,98430.19
2022-11-05T04:27:24.419Z,98434.00
2022-11-05T04:29:52.069Z,98425.78
2022-11-05T04:31:54.051Z,98427.41
2022-11-05T04:33:55.651Z,98423.56
2022-11-05T04:35:57.183Z,98425.47
2022-11-05T04:37:58.693Z,98432.88
2022-11-05T04:40:00.295Z,98436.41
2022-11-05T04:42:01.719Z,98440.25
2022-11-05T04:44:03.367Z,98438.59
2022-11-05T04:46:05.027Z,98440.78
2022-11-05T04:48:06.690Z,98443.50
2022-11-05T04:50:10.553Z,98443.78
2022-11-05T04:52:12.049Z,98454.72
2022-11-05T04:54:13.585Z,98462.63
2022-11-05T04:56:19.176Z,98459.34
2022-11-05T04:58:21.373Z,98453.88
2022-11-05T05:00:23.962Z,98455.78
2022-11-05T05:02:25.654Z,98464.81
2022-11-05T05:04:27.351Z,98462.31
2022-11-05T05:06:28.907Z,98457.69
2022-11-05T05:08:30.400Z,98467.78
2022-11-05T05:10:32.666Z,98460.69
2022-11-05T05:12:36.279Z,98471.88
2022-11-05T05:14:37.816Z,98478.44
2022-11-05T05:16:39.350Z,98482.25
2022-11-05T05:18:45.911Z,98482.25
2022-11-05T05:21:06.234Z,98490.16
2022-11-05T05:23:07.891Z,98495.84
2022-11-05T05:25:09.717Z,98501.31
2022-11-05T05:27:11.276Z,98506.78
2022-11-05T05:29:13.581Z,98509.50
2022-11-05T05:31:15.317Z,98515.25
2022-11-05T05:33:16.823Z,98516.09
2022-11-05T05:35:18.406Z,98508.13
2022-11-05T05:37:19.990Z,98520.97
2022-11-05T05:39:21.514Z,98519.34
2022-11-05T05:41:23.297Z,98520.41
2022-11-05T05:43:25.979Z,98517.94
2022-11-05T05:45:27.487Z,98527.75
2022-11-05T05:47:29.068Z,98540.88
2022-11-05T05:49:30.565Z,98527.47
2022-11-05T05:51:32.133Z,98541.13
2022-11-05T05:53:34.433Z,98538.41
2022-11-05T05:55:35.928Z,98541.97
2022-11-05T05:57:37.496Z,98545.50
2022-11-05T05:59:38.987Z,98544.94
2022-11-05T06:01:40.696Z,98546.59
2022-11-05T06:03:42.329Z,98534.84
2022-11-05T06:05:43.948Z,98541.97
2022-11-05T06:07:45.417Z,98546.31
2022-11-05T06:09:46.994Z,98551.56
2022-11-05T06:11:48.526Z,98558.66
2022-11-05T06:13:50.162Z,98562.47
2022-11-05T06:15:51.856Z,98560.81
2022-11-05T06:17:53.288Z,98567.94
2022-11-05T06:19:54.783Z,98564.09
2022-11-05T06:21:56.339Z,98572.84
2022-11-05T06:24:00.491Z,98572.63
2022-11-05T06:26:03.535Z,98573.44
2022-11-05T06:28:04.932Z,98570.72
2022-11-05T06:30:07.081Z,98576.75
2022-11-05T06:32:08.654Z,98575.63
2022-11-05T06:34:10.283Z,98582.75
2022-11-05T06:36:16.501Z,98572.91
2022-11-05T06:38:18.100Z,98585.50
2022-11-05T06:40:20.394Z,98582.75
2022-11-05T06:42:21.928Z,98581.41
2022-11-05T06:44:23.464Z,98587.72
2022-11-05T06:46:25.041Z,98593.19
2022-11-05T06:48:26.551Z,98589.34
2022-11-05T06:50:28.786Z,98598.63
2022-11-05T06:52:31.258Z,98599.47
2022-11-05T06:54:33.184Z,98608.47
2022-11-05T06:56:34.912Z,98610.69
2022-11-05T06:58:36.894Z,98611.50
2022-11-05T07:00:38.554Z,98613.19
2022-11-05T07:02:40.348Z,98619.19
2022-11-05T07:04:42.201Z,98618.38
2022-11-05T07:06:43.771Z,98621.41
2022-11-05T07:08:45.334Z,98626.88
2022-11-05T07:10:47.171Z,98626.63
2022-11-05T07:12:48.736Z,98622.81
2022-11-05T07:14:50.352Z,98624.44
2022-11-05T07:16:52.010Z,98625.00
2022-11-05T07:18:55.786Z,98633.78
2022-11-05T07:20:59.382Z,98637.06
2022-11-05T07:23:12.471Z,98638.97
2022-11-05T07:25:14.212Z,98642.53
2022-11-05T07:27:16.475Z,98649.41
2022-11-05T07:29:18.062Z,98651.63
2022-11-05T07:31:19.588Z,98655.75
2022-11-05T07:33:21.074Z,98650.00
2022-11-05T07:35:22.706Z,98656.84
2022-11-05T07:37:24.273Z,98660.97
2022-11-05T07:39:25.923Z,98658.56
2022-11-05T07:41:27.963Z,98666.22
2022-11-05T07:43:29.483Z,98665.69
2022-11-05T07:45:31.950Z,98667.94
2022-11-05T07:47:33.425Z,98670.13
2022-11-05T07:49:34.922Z,98669.63
2022-11-05T07:51:36.495Z,98680.03
2022-11-05T07:53:41.098Z,98686.88
2022-11-05T07:55:46.659Z,98680.06
2022-11-05T07:57:50.311Z,98693.22
2022-11-05T07:59:51.837Z,98694.38
2022-11-05T08:01:53.537Z,98696.53
2022-11-05T08:03:55.279Z,98702.59
2022-11-05T08:05:56.931Z,98701.00
2022-11-05T08:07:58.464Z,98699.91
2022-11-05T08:10:00.055Z,98699.38
2022-11-05T08:12:03.196Z,98707.06
2022-11-05T08:14:05.004Z,98713.91
2022-11-05T08:16:07.693Z,98721.59
2022-11-05T08:18:14.766Z,98716.44
2022-11-05T08:20:16.741Z,98719.72
2022-11-05T08:22:18.442Z,98713.75
2022-11-05T08:24:19.914Z,98718.69
2022-11-05T08:26:21.564Z,98726.38
2022-11-05T08:28:24.373Z,98722.88
2022-11-05T08:30:26.512Z,98719.59
2022-11-05T08:32:27.991Z,98726.47
2022-11-05T08:34:29.508Z,98722.94
2022-11-05T08:36:31.085Z,98720.50
2022-11-05T08:38:32.598Z,98720.81
2022-11-05T08:40:36.323Z,98721.06
2022-11-05T08:42:37.781Z,98724.94
2022-11-05T08:44:39.260Z,98732.38
2022-11-05T08:46:41.845Z,98736.50
2022-11-05T08:48:43.459Z,98735.97
2022-11-05T08:50:46.512Z,98729.97
2022-11-05T08:52:47.989Z,98737.63
2022-11-05T08:54:49.508Z,98740.66
2022-11-05T08:56:51.144Z,98747.53
2022-11-05T08:58:52.673Z,98747.25
2022-11-05T09:00:54.606Z,98748.91
2022-11-05T09:03:01.934Z,98745.09
2022-11-05T09:05:03.692Z,98745.66
2022-11-05T09:07:05.254Z,98739.06
2022-11-05T09:09:06.659Z,98747.03
2022-11-05T09:11:08.340Z,98751.41
2022-11-05T09:13:16.594Z,98745.66
2022-11-05T09:15:19.759Z,98738.28
2022-11-05T09:17:21.753Z,98744.31
2022-11-05T09:19:23.473Z,98740.47
2022-11-05T09:21:24.948Z,98742.13
2022-11-05T09:23:26.548Z,98745.41
2022-11-05T09:25:28.193Z,98744.88
2022-11-05T09:27:29.775Z,98747.63
2022-11-05T09:29:31.357Z,98744.38
2022-11-05T09:31:32.918Z,98746.56
2022-11-05T09:33:36.541Z,98747.94
2022-11-05T09:35:39.941Z,98744.94
2022-11-05T09:37:41.564Z,98756.19
2022-11-05T09:39:43.202Z,98756.19
2022-11-05T09:41:45.941Z,98761.13
2022-11-05T09:43:56.409Z,98760.59
2022-11-05T09:46:02.833Z,98767.44
2022-11-05T09:48:11.296Z,98762.50
2022-11-05T09:50:30.413Z,98760.34
2022-11-05T09:52:33.727Z,98765.84
2022-11-05T09:54:35.362Z,98766.94
2022-11-05T09:56:41.374Z,98772.47
2022-11-05T09:58:54.515Z,98772.47
2022-11-05T10:00:57.806Z,98777.13
2022-11-05T10:03:05.195Z,98778.00
2022-11-05T10:05:11.229Z,98785.19
2022-11-05T10:07:18.596Z,98781.63
2022-11-05T10:09:47.642Z,98784.38
2022-11-05T10:11:58.086Z,98785.22
2022-11-05T10:14:07.492Z,98778.06
2022-11-05T10:16:21.068Z,98780.00
2022-11-05T10:18:36.261Z,98780.84
2022-11-05T10:20:39.105Z,98776.19
2022-11-05T10:22:43.972Z,98785.25
2022-11-05T10:24:51.146Z,98772.38
2022-11-05T10:26:55.350Z,98784.44
2022-11-05T10:28:57.091Z,98785.28
2022-11-05T10:31:02.447Z,98779.22
2022-11-05T10:33:06.803Z,98785.81
2022-11-05T10:35:18.360Z,98786.91
2022-11-05T10:37:23.355Z,98791.31
2022-11-05T10:39:27.625Z,98795.13
2022-11-05T10:41:34.689Z,98796.78
2022-11-05T10:43:49.041Z,98789.38
2022-11-05T10:45:54.322Z,98792.38
2022-11-05T10:48:01.816Z,98795.13
2022-11-05T10:50:21.379Z,98791.06
2022-11-05T10:52:26.449Z,98790.75
2022-11-05T10:54:33.692Z,98798.69
2022-11-05T10:56:38.549Z,98795.38
2022-11-05T10:58:57.681Z,98796.50
2022-11-05T11:00:59.213Z,98804.97
2022-11-05T11:03:03.948Z,98799.19
2022-11-05T11:05:05.703Z,98798.06
2022-11-05T11:07:21.765Z,98798.34
2022-11-05T11:09:36.044Z,98801.34
2022-11-05T11:11:42.836Z,98806.03
2022-11-05T11:14:12.082Z,98800.50
2022-11-05T11:16:17.034Z,98800.47
2022-11-05T11:18:33.387Z,98798.81
2022-11-05T11:20:44.932Z,98795.19
2022-11-05T11:23:01.540Z,98799.03
2022-11-05T11:25:22.948Z,98800.13
2022-11-05T11:27:29.090Z,98804.50
2022-11-05T11:29:35.947Z,98808.03
2022-11-05T11:31:39.596Z,98801.13
2022-11-05T11:33:44.500Z,98803.63
2022-11-05T11:35:46.577Z,98803.09
2022-11-05T11:37:51.481Z,98797.81
2022-11-05T11:39:57.699Z,98803.84
2022-11-05T11:42:05.987Z,98800.53
2022-11-05T11:44:15.474Z,98804.66
2022-11-05T11:46:19.997Z,98795.31
2022-11-05T11:48:30.248Z,98797.75
2022-11-05T11:50:46.760Z,98804.63
2022-11-05T11:52:48.267Z,98806.28
2022-11-05T11:54:50.726Z,98800.78
2022-11-05T11:56:52.379Z,98810.97
2022-11-05T11:58:55.922Z,98801.88
2022-11-05T12:01:16.594Z,98809.59
2022-11-05T12:03:31.380Z,98809.34
2022-11-05T12:05:41.513Z,98809.94
2022-11-05T12:07:53.873Z,98812.41
2022-11-05T12:10:16.603Z,98804.72
2022-11-05T12:12:26.107Z,98807.75
2022-11-05T12:15:07.045Z,98804.72
2022-11-05T12:17:38.185Z,98806.41
2022-11-05T12:19:49.001Z,98813.28
2022-11-05T12:21:59.066Z,98806.69
2022-11-05T12:24:15.858Z,98814.69
2022-11-05T12:26:23.434Z,98808.34
2022-11-05T12:29:11.999Z,98808.91
2022-11-05T12:31:26.295Z,98808.38
2022-11-05T12:33:42.473Z,98811.69
2022-11-05T12:36:02.916Z,98814.72
2022-11-05T12:38:27.616Z,98800.44
2022-11-05T12:40:50.880Z,98806.50
2022-11-05T12:43:36.889Z,98808.72
2022-11-05T12:45:51.632Z,98807.03
2022-11-05T12:48:07.309Z,98807.59
2022-11-05T12:50:22.236Z,98809.81
2022-11-05T12:52:54.696Z,98812.88
2022-11-05T12:55:15.138Z,98812.59
2022-11-05T12:57:17.864Z,98814.50
2022-11-05T12:59:25.337Z,98809.31
2022-11-05T13:01:34.995Z,98821.41
2022-11-05T13:03:47.795Z,98817.03
2022-11-05T13:06:05.896Z,98811.78
2022-11-05T13:08:18.817Z,98810.16
2022-11-05T13:10:42.767Z,98815.91
2022-11-05T13:12:48.410Z,98817.84
2022-11-05T13:15:31.892Z,98820.34
2022-11-05T13:17:58.322Z,98817.84
2022-11-05T13:20:21.987Z,98826.38
2022-11-05T13:22:50.799Z,98822.56
2022-11-05T13:25:00.915Z,98821.72
2022-11-05T13:27:21.691Z,98818.16
2022-11-05T13:29:32.042Z,98813.72
2022-11-05T13:31:38.644Z,98822.81
2022-11-05T13:33:44.153Z,98820.34
2022-11-05T13:36:14.687Z,98819.22
2022-11-05T13:38:45.386Z,98820.63
2022-11-05T13:40:58.645Z,98818.16
2022-11-05T13:43:03.508Z,98815.94
2022-11-05T13:45:17.068Z,98815.94
2022-11-05T13:47:37.487Z,98813.72
2022-11-05T13:49:46.382Z,98806.59
2022-11-05T13:52:09.536Z,98815.69
2022-11-05T13:55:09.393Z,98822.56
2022-11-05T13:57:46.314Z,98822.00
2022-11-05T14:00:03.303Z,98826.69
2022-11-05T14:02:20.896Z,98821.75
2022-11-05T14:04:30.894Z,98824.75
2022-11-05T14:06:36.124Z,98821.75
2022-11-05T14:08:45.101Z,98829.16
2022-11-05T14:11:07.154Z,98830.25
2022-11-05T14:13:26.697Z,98834.97
2022-11-05T14:15:30.930Z,98837.41
2022-11-05T14:17:53.141Z,98839.34
2022-11-05T14:20:04.511Z,98845.66
2022-11-05T14:22:29.625Z,98844.00
2022-11-05T14:24:37.361Z,98842.38
2022-11-05T14:26:38.875Z,98844.00
2022-11-05T14:28:44.344Z,98845.13
2022-11-05T14:30:47.254Z,98847.88
2022-11-05T14:32:50.906Z,98851.72
2022-11-05T14:35:37.854Z,98847.59
2022-11-05T14:37:59.286Z,98843.47
2022-11-05T14:40:39.221Z,98848.44
2022-11-05T14:42:49.847Z,98843.22
2022-11-05T14:45:03.222Z,98845.13
2022-11-05T14:47:19.834Z,98848.97
2022-11-05T14:49:26.657Z,98850.34
2022-11-05T14:51:43.987Z,98861.34
2022-11-05T14:53:45.593Z,98869.34
2022-11-05T14:55:47.298Z,98860.25
2022-11-05T14:57:54.685Z,98862.72
2022-11-05T14:59:58.352Z,98868.22
2022-11-05T15:02:18.050Z,98861.34
2022-11-05T15:04:30.240Z,98876.47
2022-11-05T15:06:36.595Z,98873.19
2022-11-05T15:09:07.161Z,98870.97
2022-11-05T15:11:15.112Z,98877.03
2022-11-05T15:13:31.190Z,98874.28
2022-11-05T15:15:42.486Z,98869.63
2022-11-05T15:18:26.639Z,98869.63
2022-11-05T15:20:47.974Z,98870.72
2022-11-05T15:22:56.778Z,98869.63
2022-11-05T15:24:59.176Z,98877.03
2022-11-05T15:27:12.459Z,98872.09
2022-11-05T15:29:19.659Z,98876.19
2022-11-05T15:31:21.180Z,98882.78
2022-11-05T15:33:23.277Z,98890.47
2022-11-05T15:35:27.936Z,98890.72
2022-11-05T15:37:29.509Z,98885.22
2022-11-05T15:39:43.616Z,98894.03
2022-11-05T15:41:45.515Z,98891.00
2022-11-05T15:43:49.115Z,98896.75
2022-11-05T15:46:08.396Z,98906.38
2022-11-05T15:48:15.870Z,98895.97
2022-11-05T15:50:17.806Z,98897.59
2022-11-05T15:52:22.514Z,98896.75
2022-11-05T15:54:30.145Z,98902.00
2022-11-05T15:56:48.014Z,98897.88
2022-11-05T15:58:52.958Z,98907.19
2022-11-05T16:00:54.632Z,98910.75
2022-11-05T16:03:16.979Z,98906.09
2022-11-05T16:05:18.652Z,98912.69
2022-11-05T16:07:21.158Z,98905.56
2022-11-05T16:09:27.160Z,98909.69
2022-11-05T16:11:28.864Z,98904.44
2022-11-05T16:13:34.887Z,98905.56
2022-11-05T16:15:36.714Z,98901.69
2022-11-05T16:17:54.750Z,98908.53
2022-11-05T16:19:56.891Z,98913.78
2022-11-05T16:22:02.688Z,98907.16
2022-11-05T16:24:04.656Z,98915.41
2022-11-05T16:27:01.956Z,98918.13
2022-11-05T16:29:20.677Z,98913.19
2022-11-05T16:31:24.738Z,98917.28
2022-11-05T16:33:32.880Z,98915.66
2022-11-05T16:35:40.080Z,98914.81
2022-11-05T16:37:46.437Z,98918.94
2022-11-05T16:39:51.699Z,98924.72
2022-11-05T16:41:53.399Z,98923.03
2022-11-05T16:43:57.220Z,98931.28
2022-11-05T16:46:00.104Z,98930.72
2022-11-05T16:48:01.630Z,98937.59
2022-11-05T16:50:13.315Z,98937.03
2022-11-05T16:52:15.196Z,98943.88
2022-11-05T16:54:16.763Z,98955.41
2022-11-05T16:56:21.451Z,98954.56
2022-11-05T16:58:25.141Z,98957.31
2022-11-05T17:00:26.763Z,98970.72
2022-11-05T17:02:28.850Z,98960.59
2022-11-05T17:04:30.509Z,98963.84
2022-11-05T17:06:32.154Z,98958.38
2022-11-05T17:08:34.847Z,98965.81
2022-11-05T17:10:36.481Z,98959.72
2022-11-05T17:12:38.113Z,98963.59
2022-11-05T17:14:39.768Z,98972.91
2022-11-05T17:16:41.714Z,98967.94
2022-11-05T17:18:44.119Z,98967.94
2022-11-05T17:20:51.235Z,98960.81
2022-11-05T17:22:53.052Z,98952.59
2022-11-05T17:24:54.466Z,98967.91
2022-11-05T17:26:56.051Z,98962.72
2022-11-05T17:28:57.579Z,98963.53
2022-11-05T17:31:00.386Z,98961.31
2022-11-05T17:33:02.041Z,98960.25
2022-11-05T17:35:04.048Z,98961.59
2022-11-05T17:37:05.498Z,98967.34
2022-11-05T17:39:07.370Z,98976.69
2022-11-05T17:41:14.212Z,98972.28
2022-11-05T17:43:16.131Z,98969.81
2022-11-05T17:45:18.504Z,98987.91
2022-11-05T17:47:20.058Z,98982.13
2022-11-05T17:49:21.591Z,98989.25
2022-11-05T17:51:23.219Z,98998.59
2022-11-05T17:53:24.807Z,98993.34
2022-11-05T17:55:26.571Z,98989.78
2022-11-05T17:57:28.515Z,98993.06
2022-11-05T17:59:30.739Z,99007.88
2022-11-05T18:01:35.571Z,99005.13
2022-11-05T18:03:37.245Z,99008.94
2022-11-05T18:05:40.155Z,99005.66
2022-11-05T18:07:41.980Z,99009.75
2022-11-05T18:09:43.839Z,99013.81
2022-11-05T18:11:45.726Z,99015.72
2022-11-05T18:13:47.220Z,99016.00
2022-11-05T18:15:52.391Z,99021.47
2022-11-05T18:17:53.918Z,99019.81
2022-11-05T18:19:55.538Z,99018.19
2022-11-05T18:21:57.014Z,99022.00
2022-11-05T18:23:58.609Z,99009.66
2022-11-05T18:26:00.206Z,99010.47
2022-11-05T18:28:03.112Z,99005.28
2022-11-05T18:30:05.234Z,99008.00
2022-11-05T18:32:06.966Z,99004.94
2022-11-05T18:34:10.331Z,98998.63
2022-11-05T18:36:19.413Z,99000.53
2022-11-05T18:38:21.048Z,99004.13
2022-11-05T18:40:22.665Z,99008.22
2022-11-05T18:42:25.225Z,99002.19
2022-11-05T18:44:26.903Z,99007.66
2022-11-05T18:46:56.437Z,98999.44
2022-11-05T18:48:51.666Z,99006.28
2022-11-05T18:50:56.494Z,99017.47
2022-11-05T18:53:00.510Z,99007.06
2022-11-05T18:55:02.087Z,99014.69
2022-11-05T18:57:03.701Z,99010.31
2022-11-05T18:59:34.571Z,99022.38
2022-11-05T19:01:28.521Z,99018.22
2022-11-05T19:03:30.057Z,99017.41
2022-11-05T19:05:31.659Z,99018.75
2022-11-05T19:07:36.914Z,99022.84
2022-11-05T19:09:40.210Z,99023.94
2022-11-05T19:11:41.821Z,99020.88
2022-11-05T19:13:44.022Z,99021.16
2022-11-05T19:15:45.768Z,99023.06
2022-11-05T19:17:47.235Z,99020.84
2022-11-05T19:19:48.725Z,99017.03
2022-11-05T19:21:51.378Z,99012.91
2022-11-05T19:23:53.619Z,99013.41
2022-11-05T19:25:55.259Z,99016.66
2022-11-05T19:27:58.513Z,99008.97
2022-11-05T19:29:59.977Z,99020.19
2022-11-05T19:32:01.543Z,99020.97
2022-11-05T19:34:03.307Z,99027.84
2022-11-05T19:36:06.510Z,99022.06
2022-11-05T19:38:08.027Z,99020.94
2022-11-05T19:40:10.708Z,99019.25
2022-11-05T19:42:12.611Z,99019.53
2022-11-05T19:44:14.113Z,99018.16
2022-11-05T19:46:18.584Z,99025.19
2022-11-05T19:48:21.054Z,99025.19
2022-11-05T19:50:22.831Z,99028.47
2022-11-05T19:52:24.309Z,99029.22
2022-11-05T19:54:25.993Z,99026.78
2022-11-05T19:56:30.448Z,99033.59
2022-11-05T19:58:32.023Z,99038.75
2022-11-05T20:00:35.023Z,99037.09
2022-11-05T20:02:36.624Z,99045.81
2022-11-05T20:04:38.218Z,99053.47
2022-11-05T20:06:40.876Z,99050.19
2022-11-05T20:09:07.143Z,99052.31
2022-11-05T20:11:06.435Z,99053.94
2022-11-05T20:13:07.938Z,99056.94
2022-11-05T20:15:09.819Z,99054.94
2022-11-05T20:17:11.457Z,99054.13
2022-11-05T20:19:15.498Z,99054.38
2022-11-05T20:21:17.806Z,99063.69
2022-11-05T20:23:19.496Z,99057.88
2022-11-05T20:25:21.171Z,99064.69
2022-11-05T20:27:22.952Z,99057.81
2022-11-05T20:29:29.016Z,99059.13
2022-11-05T20:31:31.158Z,99054.16
2022-11-05T20:33:32.656Z,99055.25
2022-11-05T20:35:34.173Z,99055.19
2022-11-05T20:37:35.660Z,99057.31
2022-11-05T20:39:37.114Z,99058.44
2022-11-05T20:41:38.797Z,99054.53
2022-11-05T20:43:41.128Z,99066.56
2022-11-05T20:45:42.674Z,99070.63
2022-11-05T20:47:44.387Z,99070.31
2022-11-05T20:49:45.857Z,99079.34
2022-11-05T20:51:47.444Z,99086.38
2022-11-05T20:53:49.416Z,99075.13
2022-11-05T20:55:50.966Z,99081.09
2022-11-05T20:57:52.540Z,99082.16
2022-11-05T20:59:54.356Z,99082.69
2022-11-05T21:01:56.040Z,99081.28
2022-11-05T21:03:57.917Z,99088.09
2022-11-05T21:06:04.149Z,99085.84
2022-11-05T21:08:05.907Z,99082.78
2022-11-05T21:10:07.594Z,99088.75
2022-11-05T21:12:12.086Z,99093.91
2022-11-05T21:14:13.708Z,99087.03
2022-11-05T21:16:18.524Z,99097.41
2022-11-05T21:18:22.023Z,99098.72
2022-11-05T21:20:23.587Z,99103.03
2022-11-05T21:22:25.516Z,99094.25
2022-11-05T21:24:27.383Z,99090.94
2022-11-05T21:26:30.949Z,99094.44
2022-11-05T21:28:33.363Z,99092.41
2022-11-05T21:30:37.595Z,99081.16
2022-11-05T21:32:39.221Z,99085.22
2022-11-05T21:34:40.723Z,99088.44
2022-11-05T21:36:42.315Z,99088.94
2022-11-05T21:38:43.859Z,99088.63
2022-11-05T21:40:46.137Z,99093.47
2022-11-05T21:42:47.670Z,99093.16
2022-11-05T21:44:49.242Z,99092.81
2022-11-05T21:46:52.503Z,99099.38
2022-11-05T21:48:53.902Z,99088.09
2022-11-05T21:51:14.104Z,99081.50
2022-11-05T21:53:35.795Z,99089.06
2022-11-05T21:55:59.179Z,99084.63
2022-11-05T21:58:24.814Z,99096.03
2022-11-05T22:00:26.390Z,99082.28
2022-11-05T22:02:30.968Z,99095.38
2022-11-05T22:04:46.877Z,99093.13
2022-11-05T22:06:48.434Z,99085.19
2022-11-05T22:08:49.936Z,99094.88
2022-11-05T22:10:51.563Z,99088.00
2022-11-05T22:12:53.071Z,99081.41
2022-11-05T22:14:55.076Z,99085.44
2022-11-05T22:16:57.443Z,99086.75
2022-11-05T22:18:59.495Z,99084.50
2022-11-05T22:21:01.122Z,99089.41
2022-11-05T22:23:05.371Z,99090.09
2022-11-05T22:25:10.259Z,99085.94
2022-11-05T22:27:17.302Z,99083.75
2022-11-05T22:29:19.132Z,99087.78
2022-11-05T22:31:21.001Z,99094.56
2022-11-05T22:33:22.702Z,99083.28
2022-11-05T22:35:24.293Z,99083.75
2022-11-05T22:37:25.801Z,99079.63
2022-11-05T22:39:27.381Z,99082.81
2022-11-05T22:41:29.039Z,99083.09
2022-11-05T22:43:32.319Z,99078.94
2022-11-05T22:45:36.844Z,99074.53
2022-11-05T22:47:41.468Z,99072.06
2022-11-05T22:49:43.104Z,99065.19
2022-11-05T22:51:45.506Z,99069.81
2022-11-05T22:53:47.250Z,99072.78
2022-11-05T22:55:48.846Z,99069.47
2022-11-05T22:57:50.304Z,99077.06
2022-11-05T22:59:52.099Z,99076.25
2022-11-05T23:01:53.799Z,99069.38
2022-11-05T23:03:56.966Z,99071.75
2022-11-05T23:06:04.274Z,99069.50
2022-11-05T23:08:38.042Z,99082.56
2022-11-05T23:10:58.588Z,99079.72
2022-11-05T23:13:00.094Z,99082.69
2022-11-05T23:15:05.536Z,99076.63
2022-11-05T23:17:27.417Z,99077.13
2022-11-05T23:19:48.322Z,99083.06
2022-11-05T23:22:08.543Z,99078.91
2022-11-05T23:24:13.005Z,99080.22
2022-11-05T23:26:32.974Z,99080.22
2022-11-05T23:28:34.461Z,99080.69
2022-11-05T23:30:58.202Z,99074.88
2022-11-05T23:32:59.689Z,99080.59
2022-11-05T23:35:01.337Z,99082.94
2022-11-05T23:37:21.697Z,99078.00
2022-11-05T23:39:23.161Z,99087.47
2022-11-05T23:41:43.331Z,99074.91
2022-11-05T23:44:03.527Z,99068.03
2022-11-05T23:46:23.809Z,99076.47
2022-11-05T23:48:35.483Z,99076.09
2022-11-05T23:50:40.048Z,99084.53
2022-11-05T23:52:41.792Z,99077.41
2022-11-05T23:54:43.314Z,99083.31
2022-11-05T23:56:45.869Z,99082.47
2022-11-05T23:58:47.363Z,99082.97
